Zagreb — 9AA5910 — position and weather

sailwx.info

Track history (hours):
 
Tides and Currents Weather Stations Pressure Air Temp Water Temp Dewpoint Dewpoint Depression Visibility Wind Speed Wind Dir Waves Ship Positions

Zagreb

Last reported at 2014-Nov-26 23:20 UTC. Time now 2014-Nov-27 00:08 UTC.
Position N 59°59' E 026°15'.

Length 229 m; draft 13.5 m.

Type: Cargo ship. MMSI: 238249000.

Date/timePositionNaut miles runAvg speedWind from/ knotsBaromVisibWave heightAir tempDewpointWater temp
2014-Nov-26 23:20N 59°59' E 026°15'1012.9
2014-Nov-26 22:33N 60°02' E 026°35'1413.0
2014-Nov-26 21:26N 59°59' E 027°03'  
2014-Nov-22 05:17N 60°05' E 027°29'1513.9
2014-Nov-22 04:12N 59°58' E 027°02'914.0
2014-Nov-22 03:33N 59°59' E 026°44'6014.0
2014-Nov-21 23:16N 59°46' E 024°47'1014.1
2014-Nov-21 22:33N 59°44' E 024°28'1413.9
2014-Nov-21 21:33N 59°40' E 024°02'1714.1
2014-Nov-21 20:21N 59°34' E 023°30'34913.5
2014-Nov-20 18:33N 55°39' E 015°29'1413.4
2014-Nov-20 17:32N 55°32' E 015°07'1313.6
2014-Nov-20 16:33N 55°26' E 014°47'1313.5
2014-Nov-20 15:34N 55°17' E 014°29'1312.6
2014-Nov-20 14:33N 55°10' E 014°10'2713.6
2014-Nov-20 12:33N 55°11' E 013°23'1313.4
2014-Nov-20 11:33N 55°13' E 012°59'1313.5
2014-Nov-20 10:34N 55°18' E 012°38'1414.0
2014-Nov-20 09:33N 55°31' E 012°42'1212.3
2014-Nov-20 08:33N 55°44' E 012°41'1312.5
2014-Nov-20 07:33N 55°56' E 012°39'1110.6
2014-Nov-20 06:33N 56°06' E 012°33'1211.9
2014-Nov-20 05:33N 56°13' E 012°15'1212.2
2014-Nov-20 04:33N 56°22' E 012°00'6013.5
2014-Nov-20 00:07N 57°20' E 011°29'712.8
2014-Nov-19 23:33N 57°26' E 011°24'1312.6
2014-Nov-19 22:32N 57°36' E 011°08'1212.3
2014-Nov-19 21:33N 57°44' E 010°51'14011.6
2014-Nov-19 09:33N 56°29' E 007°13'14512.9
2014-Nov-18 22:15N 54°23' E 005°07'912.9
2014-Nov-18 21:33N 54°15' E 005°01'1312.7
2014-Nov-18 20:33N 54°04' E 004°50'16213.1
2014-Nov-18 08:16N 51°45' E 002°34'1013.5
2014-Nov-18 07:33N 51°37' E 002°24'1312.8
2014-Nov-18 06:33N 51°26' E 002°12'1212.6
2014-Nov-18 05:33N 51°14' E 002°06'1212.0
2014-Nov-18 04:33N 51°08' E 001°50'1111.5
2014-Nov-18 03:33N 51°00' E 001°37'1211.4
2014-Nov-18 02:32N 50°51' E 001°27'4711.8
2014-Nov-17 22:32N 50°23' E 000°26'  
Track history (hours):
 
Tides and Currents Weather Stations Pressure Air Temp Water Temp Dewpoint Dewpoint Depression Visibility Wind Speed Wind Dir Waves Ship Positions

Zagreb

Last reported at 2014-Nov-26 23:20 UTC. Time now 2014-Nov-27 00:08 UTC.
Position N 59°59' E 026°15'.

Length 229 m; draft 13.5 m.

Type: Cargo ship. MMSI: 238249000.

Date/timePositionNaut miles runAvg speedWind from/ knotsBaromVisibWave heightAir tempDewpointWater temp
2014-Nov-26 23:20N 59°59' E 026°15'1012.9
2014-Nov-26 22:33N 60°02' E 026°35'1413.0
2014-Nov-26 21:26N 59°59' E 027°03'  
2014-Nov-22 05:17N 60°05' E 027°29'1513.9
2014-Nov-22 04:12N 59°58' E 027°02'914.0
2014-Nov-22 03:33N 59°59' E 026°44'6014.0
2014-Nov-21 23:16N 59°46' E 024°47'1014.1
2014-Nov-21 22:33N 59°44' E 024°28'1413.9
2014-Nov-21 21:33N 59°40' E 024°02'1714.1
2014-Nov-21 20:21N 59°34' E 023°30'34913.5
2014-Nov-20 18:33N 55°39' E 015°29'1413.4
2014-Nov-20 17:32N 55°32' E 015°07'1313.6
2014-Nov-20 16:33N 55°26' E 014°47'1313.5
2014-Nov-20 15:34N 55°17' E 014°29'1312.6
2014-Nov-20 14:33N 55°10' E 014°10'2713.6
2014-Nov-20 12:33N 55°11' E 013°23'1313.4
2014-Nov-20 11:33N 55°13' E 012°59'1313.5
2014-Nov-20 10:34N 55°18' E 012°38'1414.0
2014-Nov-20 09:33N 55°31' E 012°42'1212.3
2014-Nov-20 08:33N 55°44' E 012°41'1312.5
2014-Nov-20 07:33N 55°56' E 012°39'1110.6
2014-Nov-20 06:33N 56°06' E 012°33'1211.9
2014-Nov-20 05:33N 56°13' E 012°15'1212.2
2014-Nov-20 04:33N 56°22' E 012°00'6013.5
2014-Nov-20 00:07N 57°20' E 011°29'712.8
2014-Nov-19 23:33N 57°26' E 011°24'1312.6
2014-Nov-19 22:32N 57°36' E 011°08'1212.3
2014-Nov-19 21:33N 57°44' E 010°51'14011.6
2014-Nov-19 09:33N 56°29' E 007°13'14512.9
2014-Nov-18 22:15N 54°23' E 005°07'912.9
2014-Nov-18 21:33N 54°15' E 005°01'1312.7
2014-Nov-18 20:33N 54°04' E 004°50'16213.1
2014-Nov-18 08:16N 51°45' E 002°34'1013.5
2014-Nov-18 07:33N 51°37' E 002°24'1312.8
2014-Nov-18 06:33N 51°26' E 002°12'1212.6
2014-Nov-18 05:33N 51°14' E 002°06'1212.0
2014-Nov-18 04:33N 51°08' E 001°50'1111.5
2014-Nov-18 03:33N 51°00' E 001°37'1211.4
2014-Nov-18 02:32N 50°51' E 001°27'4711.8
2014-Nov-17 22:32N 50°23' E 000°26'  

Dump ship's entire track history